Time;durP1;ratioP1;P1;durP2;ratioP2;P2;SDS_P1;SDS_P2;PMS_P1;PMS_P2;Temp;Humidity;BMP_temperature;BMP_pressure;BME280_temperature;BME280_humidity;BME280_pressure;Samples;Min_cycle;Max_cycle;Signal;HPM_P1;HPM_P2
2023/01/22 00:02:05;;;;;;;;;43.50;31.75;;;;;;;;5080908;27;51709;-54
2023/01/22 00:04:49;;;;;;;;;44.00;33.75;;;;;;;;5084522;27;51112;-51
2023/01/22 00:07:33;;;;;;;;;43.75;33.75;;;;;;;;5096501;27;51116;-54
2023/01/22 00:10:18;;;;;;;;;42.25;33.50;;;;;;;;5101187;27;51165;-57
2023/01/22 00:13:02;;;;;;;;;40.25;32.00;;;;;;;;5089710;27;51177;-53
2023/01/22 00:15:47;;;;;;;;;39.25;33.00;;;;;;;;5080917;27;51164;-54
2023/01/22 00:18:32;;;;;;;;;42.00;33.75;;;;;;;;5087740;27;51088;-56
2023/01/22 00:21:16;;;;;;;;;41.50;32.50;;;;;;;;5096830;27;51441;-51
2023/01/22 00:24:00;;;;;;;;;38.25;29.00;;;;;;;;5101114;27;51103;-52
2023/01/22 00:26:45;;;;;;;;;42.00;32.75;;;;;;;;5090533;27;51204;-52
2023/01/22 00:29:29;;;;;;;;;35.25;30.50;;;;;;;;5080407;27;51187;-55
2023/01/22 00:32:14;;;;;;;;;34.75;30.50;;;;;;;;5087831;27;52132;-53
2023/01/22 00:34:58;;;;;;;;;37.50;30.75;;;;;;;;5100152;27;51103;-54
2023/01/22 00:37:45;;;;;;;;;39.50;31.00;;;;;;;;5079979;27;51165;-53
2023/01/22 00:40:29;;;;;;;;;43.50;32.25;;;;;;;;5097542;27;51065;-51
2023/01/22 00:43:14;;;;;;;;;41.00;34.25;;;;;;;;5100484;27;51151;-55
2023/01/22 00:45:59;;;;;;;;;37.25;31.75;;;;;;;;5092186;27;51450;-55
2023/01/22 00:48:48;;;;;;;;;40.00;32.00;;;;;;;;5088307;27;51195;-51
2023/01/22 00:51:35;;;;;;;;;38.00;31.75;;;;;;;;5100704;27;51538;-54
2023/01/22 00:54:19;;;;;;;;;36.25;31.75;;;;;;;;5095719;27;51520;-54
2023/01/22 00:57:03;;;;;;;;;39.25;32.00;;;;;;;;5100677;27;51112;-50
2023/01/22 00:59:48;;;;;;;;;38.50;31.75;;;;;;;;5086425;27;51273;-53
2023/01/22 01:02:32;;;;;;;;;34.25;31.50;;;;;;;;5090830;27;51138;-56
2023/01/22 01:05:17;;;;;;;;;35.50;30.75;;;;;;;;5090286;27;51808;-55
2023/01/22 01:08:01;;;;;;;;;39.00;31.50;;;;;;;;5100247;27;51064;-50
2023/01/22 01:10:45;;;;;;;;;41.75;32.75;;;;;;;;5082668;27;51054;-56
2023/01/22 01:13:31;;;;;;;;;38.00;31.00;;;;;;;;5079876;27;51105;-53
2023/01/22 01:16:17;;;;;;;;;42.00;33.00;;;;;;;;5079661;27;51550;-52
2023/01/22 01:19:06;;;;;;;;;41.25;32.50;;;;;;;;5079469;27;51101;-54
2023/01/22 01:21:50;;;;;;;;;40.50;31.75;;;;;;;;5098586;27;51315;-54
2023/01/22 01:24:35;;;;;;;;;35.25;29.25;;;;;;;;5083766;27;53024;-54
2023/01/22 01:27:19;;;;;;;;;43.25;31.75;;;;;;;;5097416;27;51165;-53
2023/01/22 01:30:04;;;;;;;;;34.25;31.25;;;;;;;;5097978;27;51654;-52
2023/01/22 01:32:49;;;;;;;;;43.50;32.50;;;;;;;;5086636;27;50989;-53
2023/01/22 01:35:33;;;;;;;;;43.50;33.75;;;;;;;;5079370;27;51216;-53
2023/01/22 01:38:17;;;;;;;;;34.75;30.00;;;;;;;;5082093;27;51133;-54
2023/01/22 01:41:02;;;;;;;;;34.00;27.50;;;;;;;;5091098;27;51546;-51
2023/01/22 01:44:04;;;;;;;;;37.75;32.00;;;;;;;;5099112;27;51556;-53
2023/01/22 01:46:54;;;;;;;;;38.00;31.00;;;;;;;;5086445;27;51016;-50
2023/01/22 01:49:43;;;;;;;;;34.50;30.25;;;;;;;;5079287;27;51136;-55
2023/01/22 01:52:27;;;;;;;;;42.75;31.75;;;;;;;;5079644;27;51111;-54
2023/01/22 01:55:13;;;;;;;;;37.25;32.75;;;;;;;;5079488;27;51531;-56
2023/01/22 01:58:00;;;;;;;;;31.00;28.25;;;;;;;;5079935;27;51382;-55
2023/01/22 02:00:46;;;;;;;;;41.25;31.25;;;;;;;;5087489;27;51523;-53
2023/01/22 02:03:30;;;;;;;;;45.50;31.75;;;;;;;;5083966;27;51084;-53
2023/01/22 02:06:16;;;;;;;;;32.25;27.25;;;;;;;;5088920;27;51663;-53
2023/01/22 02:09:00;;;;;;;;;39.50;32.75;;;;;;;;5086726;27;51092;-53
2023/01/22 02:11:44;;;;;;;;;47.00;33.00;;;;;;;;5087074;27;51192;-53
2023/01/22 02:14:31;;;;;;;;;36.75;32.25;;;;;;;;5092057;27;51126;-50
2023/01/22 02:17:20;;;;;;;;;38.25;30.50;;;;;;;;5087244;27;51217;-54
2023/01/22 02:20:05;;;;;;;;;42.75;32.50;;;;;;;;5086105;27;51229;-52
2023/01/22 02:22:49;;;;;;;;;38.75;31.25;;;;;;;;5083707;27;51015;-51
2023/01/22 02:25:34;;;;;;;;;40.00;33.50;;;;;;;;5089995;27;51111;-53
2023/01/22 02:28:18;;;;;;;;;33.75;28.75;;;;;;;;5086963;27;51223;-50
2023/01/22 02:31:03;;;;;;;;;40.00;32.00;;;;;;;;5087372;27;51589;-53
2023/01/22 02:33:47;;;;;;;;;45.25;33.00;;;;;;;;5091396;27;51103;-54
2023/01/22 02:36:33;;;;;;;;;37.00;31.50;;;;;;;;5087022;27;52355;-50
2023/01/22 02:39:17;;;;;;;;;35.75;30.25;;;;;;;;5080746;27;51872;-52
2023/01/22 02:42:03;;;;;;;;;39.25;32.00;;;;;;;;5087398;27;51084;-53
2023/01/22 02:44:49;;;;;;;;;20.25;17.75;;;;;;;;5088420;27;51172;-53
2023/01/22 02:47:36;;;;;;;;;39.50;32.00;;;;;;;;5092524;27;51226;-53
2023/01/22 02:50:20;;;;;;;;;41.00;32.25;;;;;;;;5088937;27;51395;-52
2023/01/22 02:53:05;;;;;;;;;40.50;31.00;;;;;;;;5088766;27;51100;-51
2023/01/22 02:55:49;;;;;;;;;38.00;29.25;;;;;;;;5089670;27;51721;-53
2023/01/22 02:58:34;;;;;;;;;41.75;33.00;;;;;;;;5094224;27;51118;-50
2023/01/22 03:01:22;;;;;;;;;38.50;33.00;;;;;;;;5090663;27;51158;-51
2023/01/22 03:04:09;;;;;;;;;35.75;33.00;;;;;;;;5087460;27;51126;-50
2023/01/22 03:06:54;;;;;;;;;43.50;32.75;;;;;;;;5086492;27;51215;-51
2023/01/22 03:09:38;;;;;;;;;40.50;32.25;;;;;;;;5087093;27;51263;-52
2023/01/22 03:12:23;;;;;;;;;36.75;31.25;;;;;;;;5087038;27;51159;-53
2023/01/22 03:21:17;;;;;;;;;39.75;31.75;;;;;;;;5083694;27;51140;-53
2023/01/22 03:24:02;;;;;;;;;40.75;32.75;;;;;;;;5093658;27;51126;-51
2023/01/22 03:26:46;;;;;;;;;44.25;32.50;;;;;;;;5091495;27;51316;-52
2023/01/22 03:29:30;;;;;;;;;40.25;32.50;;;;;;;;5090620;27;51105;-54
2023/01/22 03:32:15;;;;;;;;;41.75;31.75;;;;;;;;5087732;27;51093;-54
2023/01/22 03:35:00;;;;;;;;;43.75;34.75;;;;;;;;5089088;27;51196;-55
2023/01/22 03:37:44;;;;;;;;;39.00;31.00;;;;;;;;5083377;27;51146;-55
2023/01/22 03:40:29;;;;;;;;;38.50;33.00;;;;;;;;5087098;27;51076;-53
2023/01/22 03:43:14;;;;;;;;;38.50;31.25;;;;;;;;5090248;27;51148;-53
2023/01/22 03:46:03;;;;;;;;;40.00;33.75;;;;;;;;5087689;27;51787;-53
2023/01/22 03:48:51;;;;;;;;;42.50;32.25;;;;;;;;5088100;27;51146;-53
2023/01/22 03:51:35;;;;;;;;;38.00;31.00;;;;;;;;5083672;27;51176;-53
2023/01/22 03:54:20;;;;;;;;;36.75;32.75;;;;;;;;5087796;27;51384;-51
2023/01/22 03:57:04;;;;;;;;;43.25;34.25;;;;;;;;5094509;27;51359;-52
2023/01/22 03:59:48;;;;;;;;;39.50;32.50;;;;;;;;5091564;27;51164;-53
2023/01/22 04:02:33;;;;;;;;;46.00;32.00;;;;;;;;5089524;27;51174;-54
2023/01/22 04:05:19;;;;;;;;;42.75;31.50;;;;;;;;5085807;27;51206;-53
2023/01/22 04:08:03;;;;;;;;;41.75;32.75;;;;;;;;5086897;27;51582;-50
2023/01/22 04:10:48;;;;;;;;;39.75;33.00;;;;;;;;5084509;27;51511;-53
2023/01/22 04:13:33;;;;;;;;;40.00;33.00;;;;;;;;5089963;27;51192;-49
2023/01/22 04:16:17;;;;;;;;;37.50;32.25;;;;;;;;5093057;27;51113;-55
2023/01/22 04:19:01;;;;;;;;;41.75;34.25;;;;;;;;5086705;27;51144;-53
2023/01/22 04:21:47;;;;;;;;;39.75;30.00;;;;;;;;5088837;27;51158;-50
2023/01/22 04:24:32;;;;;;;;;41.00;32.25;;;;;;;;5090428;27;51130;-53
2023/01/22 04:27:17;;;;;;;;;42.50;33.75;;;;;;;;5084106;27;51167;-52
2023/01/22 04:30:01;;;;;;;;;44.75;33.50;;;;;;;;5089818;27;51129;-53
2023/01/22 04:32:45;;;;;;;;;42.75;33.75;;;;;;;;5087494;27;51151;-55
2023/01/22 04:35:30;;;;;;;;;41.50;32.00;;;;;;;;5087051;27;51615;-53
2023/01/22 04:38:14;;;;;;;;;40.25;34.00;;;;;;;;5083983;27;51183;-52
2023/01/22 04:40:59;;;;;;;;;38.50;31.50;;;;;;;;5087138;27;51378;-54
2023/01/22 04:43:43;;;;;;;;;37.75;32.00;;;;;;;;5089723;27;51074;-53
2023/01/22 04:46:28;;;;;;;;;36.75;32.25;;;;;;;;5086225;27;51095;-53
2023/01/22 04:49:13;;;;;;;;;44.50;34.50;;;;;;;;5090165;27;51211;-55
2023/01/22 04:51:57;;;;;;;;;43.25;34.75;;;;;;;;5083601;27;51611;-51
2023/01/22 04:54:41;;;;;;;;;45.25;34.00;;;;;;;;5085471;27;52479;-53
2023/01/22 04:57:25;;;;;;;;;41.50;33.00;;;;;;;;5083083;27;51120;-54
2023/01/22 05:00:10;;;;;;;;;38.25;30.00;;;;;;;;5086537;27;51640;-54
2023/01/22 05:02:59;;;;;;;;;45.25;34.25;;;;;;;;5084011;27;51124;-51
2023/01/22 05:05:43;;;;;;;;;37.00;31.00;;;;;;;;5087361;27;51070;-53
2023/01/22 05:08:27;;;;;;;;;46.75;35.00;;;;;;;;5090891;27;51163;-54
2023/01/22 05:11:12;;;;;;;;;42.25;33.00;;;;;;;;5083811;27;51593;-52
2023/01/22 05:13:56;;;;;;;;;41.75;33.50;;;;;;;;5082330;27;51163;-54
2023/01/22 05:16:41;;;;;;;;;44.25;34.50;;;;;;;;5087624;27;51045;-52
2023/01/22 05:19:25;;;;;;;;;40.25;32.00;;;;;;;;5084647;27;51566;-50
2023/01/22 05:22:10;;;;;;;;;47.00;35.00;;;;;;;;5087758;27;51132;-52
2023/01/22 05:24:54;;;;;;;;;42.50;34.50;;;;;;;;5083519;27;51558;-52
2023/01/22 05:27:39;;;;;;;;;48.00;35.75;;;;;;;;5091063;27;51139;-53
2023/01/22 05:30:23;;;;;;;;;44.25;34.50;;;;;;;;5085561;27;51167;-49
2023/01/22 05:33:07;;;;;;;;;40.25;34.75;;;;;;;;5091524;27;51512;-52
2023/01/22 05:35:56;;;;;;;;;44.75;34.50;;;;;;;;5086678;27;51509;-52
2023/01/22 05:38:41;;;;;;;;;36.25;28.00;;;;;;;;5084045;27;51167;-53
2023/01/22 05:41:25;;;;;;;;;44.50;35.00;;;;;;;;5079606;27;51205;-51
2023/01/22 05:44:10;;;;;;;;;47.25;34.50;;;;;;;;5085035;27;51396;-51
2023/01/22 05:46:55;;;;;;;;;45.50;35.00;;;;;;;;5081266;27;51164;-55
2023/01/22 05:49:40;;;;;;;;;43.50;33.75;;;;;;;;5084621;27;51524;-55
2023/01/22 05:52:24;;;;;;;;;41.75;34.00;;;;;;;;5087208;27;51181;-50
2023/01/22 05:55:08;;;;;;;;;38.25;31.50;;;;;;;;5088146;27;51134;-53
2023/01/22 05:57:52;;;;;;;;;49.50;36.50;;;;;;;;5086614;27;51474;-51
2023/01/22 06:00:37;;;;;;;;;39.00;32.25;;;;;;;;5085146;27;51769;-55
2023/01/22 06:03:21;;;;;;;;;43.25;33.00;;;;;;;;5088414;27;51068;-51
2023/01/22 06:06:07;;;;;;;;;46.25;35.50;;;;;;;;5087063;27;51238;-54
2023/01/22 06:08:51;;;;;;;;;43.50;34.50;;;;;;;;5087502;27;51249;-55
2023/01/22 06:11:35;;;;;;;;;44.50;34.00;;;;;;;;5092526;27;51103;-54
2023/01/22 06:14:20;;;;;;;;;41.75;33.25;;;;;;;;5091074;27;51608;-57
2023/01/22 06:17:04;;;;;;;;;43.50;34.75;;;;;;;;5096134;27;51056;-53
2023/01/22 06:19:49;;;;;;;;;43.00;33.50;;;;;;;;5089039;27;51227;-54
2023/01/22 06:22:33;;;;;;;;;45.75;35.25;;;;;;;;5092114;27;51133;-55
2023/01/22 06:25:18;;;;;;;;;44.00;35.25;;;;;;;;5087578;27;51704;-55
2023/01/22 06:28:02;;;;;;;;;47.50;37.00;;;;;;;;5089850;27;51245;-56
2023/01/22 06:30:47;;;;;;;;;46.75;36.00;;;;;;;;5090832;27;51022;-57
2023/01/22 06:33:33;;;;;;;;;44.75;36.75;;;;;;;;5088814;27;51410;-51
2023/01/22 06:36:17;;;;;;;;;41.25;33.00;;;;;;;;5091112;27;51154;-52
2023/01/22 06:39:01;;;;;;;;;49.00;37.50;;;;;;;;5084200;27;51544;-55
2023/01/22 06:41:47;;;;;;;;;44.00;35.25;;;;;;;;5087755;27;51420;-55
2023/01/22 06:44:31;;;;;;;;;32.50;22.50;;;;;;;;5089661;27;51409;-55
2023/01/22 06:47:15;;;;;;;;;40.50;34.75;;;;;;;;5088151;27;51157;-50
2023/01/22 06:50:00;;;;;;;;;46.00;37.00;;;;;;;;5092692;27;51268;-53
2023/01/22 06:52:44;;;;;;;;;48.50;35.00;;;;;;;;5085450;27;51196;-49
2023/01/22 06:55:29;;;;;;;;;53.50;39.75;;;;;;;;5092424;27;51151;-52
2023/01/22 06:58:13;;;;;;;;;45.75;38.00;;;;;;;;5082123;27;51540;-52
2023/01/22 07:01:01;;;;;;;;;49.25;38.75;;;;;;;;5081727;27;51069;-53
2023/01/22 07:03:45;;;;;;;;;58.75;44.00;;;;;;;;5082091;27;51579;-55
2023/01/22 07:06:30;;;;;;;;;61.75;46.25;;;;;;;;5086310;27;51087;-53
2023/01/22 07:09:14;;;;;;;;;61.25;47.50;;;;;;;;5100003;27;51190;-53
2023/01/22 07:12:00;;;;;;;;;64.25;48.75;;;;;;;;5091032;27;51157;-54
2023/01/22 07:14:45;;;;;;;;;62.00;47.25;;;;;;;;5098673;27;51514;-54
2023/01/22 07:17:29;;;;;;;;;49.00;38.75;;;;;;;;5101759;27;51040;-55
2023/01/22 07:20:13;;;;;;;;;59.25;47.25;;;;;;;;5102235;27;51420;-50
2023/01/22 07:22:58;;;;;;;;;63.50;49.50;;;;;;;;5101024;27;51104;-54
2023/01/22 07:25:43;;;;;;;;;60.50;48.50;;;;;;;;5081748;27;51099;-53
2023/01/22 07:28:27;;;;;;;;;67.00;50.00;;;;;;;;5080698;27;51227;-52
2023/01/22 07:31:12;;;;;;;;;58.00;45.50;;;;;;;;5093992;27;51081;-51
2023/01/22 07:33:56;;;;;;;;;66.75;50.00;;;;;;;;5101853;27;50999;-54
2023/01/22 07:36:41;;;;;;;;;62.75;48.50;;;;;;;;5089594;27;51973;-54
2023/01/22 07:39:25;;;;;;;;;66.50;49.50;;;;;;;;5095496;27;51686;-57
2023/01/22 07:42:11;;;;;;;;;62.50;47.25;;;;;;;;5101577;27;51093;-51
2023/01/22 07:44:55;;;;;;;;;62.25;48.75;;;;;;;;5091107;27;51073;-55
2023/01/22 07:47:39;;;;;;;;;64.50;48.00;;;;;;;;5087096;27;51235;-54
2023/01/22 07:50:25;;;;;;;;;61.75;48.00;;;;;;;;5081268;27;51091;-54
2023/01/22 07:53:10;;;;;;;;;62.75;46.75;;;;;;;;5081106;27;51100;-56
2023/01/22 07:55:55;;;;;;;;;63.50;45.50;;;;;;;;5097930;27;51202;-51
2023/01/22 07:58:40;;;;;;;;;61.50;45.50;;;;;;;;5101849;27;51149;-49
2023/01/22 08:01:24;;;;;;;;;58.00;45.25;;;;;;;;5084375;27;51069;-54
2023/01/22 08:04:08;;;;;;;;;55.50;42.00;;;;;;;;5090257;27;51084;-57
2023/01/22 08:06:53;;;;;;;;;49.50;39.25;;;;;;;;5080862;27;51109;-55
2023/01/22 08:09:37;;;;;;;;;51.25;41.00;;;;;;;;5080758;27;51183;-53
2023/01/22 08:12:22;;;;;;;;;58.00;43.25;;;;;;;;5080342;27;51045;-54
2023/01/22 08:15:08;;;;;;;;;49.25;40.00;;;;;;;;5080918;27;51015;-53
2023/01/22 08:17:52;;;;;;;;;47.50;38.50;;;;;;;;5080849;27;51137;-53
2023/01/22 08:20:36;;;;;;;;;49.00;39.25;;;;;;;;5080119;27;51113;-55
2023/01/22 08:23:21;;;;;;;;;48.75;39.00;;;;;;;;5080991;27;51207;-52
2023/01/22 08:26:05;;;;;;;;;48.25;38.00;;;;;;;;5080280;27;51544;-54
2023/01/22 08:28:50;;;;;;;;;51.75;39.50;;;;;;;;5079404;27;51597;-53
2023/01/22 08:31:34;;;;;;;;;60.00;48.00;;;;;;;;5096132;27;51154;-53
2023/01/22 08:34:19;;;;;;;;;61.75;47.00;;;;;;;;5101176;27;51048;-56
2023/01/22 08:37:03;;;;;;;;;60.00;47.50;;;;;;;;5079733;27;51014;-55
2023/01/22 08:39:48;;;;;;;;;66.50;50.50;;;;;;;;5095451;27;51355;-50
2023/01/22 08:42:32;;;;;;;;;60.25;48.25;;;;;;;;5097284;27;51144;-56
2023/01/22 08:45:16;;;;;;;;;53.75;42.25;;;;;;;;5079841;27;51061;-56
2023/01/22 08:48:01;;;;;;;;;58.25;43.75;;;;;;;;5080369;27;51147;-50
2023/01/22 08:50:45;;;;;;;;;57.00;43.75;;;;;;;;5079934;27;51097;-53
2023/01/22 08:53:30;;;;;;;;;59.50;43.25;;;;;;;;5079966;27;51130;-55
2023/01/22 08:56:14;;;;;;;;;51.75;41.25;;;;;;;;5079935;27;51199;-54
2023/01/22 08:59:01;;;;;;;;;55.25;42.50;;;;;;;;5080578;27;51124;-52
2023/01/22 09:01:45;;;;;;;;;52.00;40.00;;;;;;;;5079604;27;51461;-53
2023/01/22 09:04:29;;;;;;;;;47.25;37.75;;;;;;;;5079997;27;51072;-53
2023/01/22 09:07:13;;;;;;;;;54.00;38.75;;;;;;;;5079948;27;51078;-55
2023/01/22 09:09:58;;;;;;;;;48.25;38.00;;;;;;;;5080768;27;51585;-52
2023/01/22 09:12:42;;;;;;;;;49.25;41.25;;;;;;;;5095841;27;51147;-54
2023/01/22 09:15:27;;;;;;;;;46.75;39.75;;;;;;;;5100192;27;51492;-55
2023/01/22 09:18:11;;;;;;;;;47.75;38.25;;;;;;;;5100113;27;51079;-55
2023/01/22 09:20:57;;;;;;;;;46.25;36.00;;;;;;;;5099850;27;51087;-50
2023/01/22 09:23:41;;;;;;;;;52.25;41.75;;;;;;;;5100484;27;51115;-53
2023/01/22 09:26:26;;;;;;;;;47.75;38.25;;;;;;;;5099643;27;51046;-52
2023/01/22 09:29:10;;;;;;;;;51.50;39.75;;;;;;;;5100070;27;51489;-50
2023/01/22 09:31:55;;;;;;;;;49.00;39.00;;;;;;;;5100058;27;51137;-54
2023/01/22 09:34:39;;;;;;;;;46.25;37.25;;;;;;;;5099663;27;51178;-49
2023/01/22 09:37:24;;;;;;;;;49.00;38.25;;;;;;;;5096291;27;51016;-52
2023/01/22 09:40:28;;;;;;;;;46.00;35.25;;;;;;;;5077106;27;51151;-52
2023/01/22 09:43:33;;;;;;;;;50.00;39.25;;;;;;;;5087386;27;50995;-53
2023/01/22 09:46:26;;;;;;;;;72.75;62.25;;;;;;;;5083250;27;51059;-54
2023/01/22 09:49:18;;;;;;;;;43.00;32.75;;;;;;;;5083530;27;51031;-50
2023/01/22 09:52:03;;;;;;;;;47.75;35.75;;;;;;;;5082391;27;51534;-53
2023/01/22 09:54:48;;;;;;;;;36.00;32.00;;;;;;;;5094198;27;51358;-47
2023/01/22 09:57:32;;;;;;;;;41.25;34.00;;;;;;;;5083410;27;51497;-54
2023/01/22 10:00:19;;;;;;;;;42.00;31.25;;;;;;;;5082690;27;51131;-53
2023/01/22 10:03:17;;;;;;;;;33.75;29.75;;;;;;;;5082503;27;51116;-52
2023/01/22 10:06:04;;;;;;;;;40.50;31.25;;;;;;;;5083009;27;51128;-53
2023/01/22 10:09:24;;;;;;;;;40.50;31.25;;;;;;;;5099593;27;51610;-55
2023/01/22 10:12:12;;;;;;;;;41.25;34.00;;;;;;;;5052147;28;51283;-52
2023/01/22 10:14:56;;;;;;;;;38.00;30.75;;;;;;;;5101128;27;51001;-52
2023/01/22 10:17:41;;;;;;;;;46.50;34.75;;;;;;;;5086459;27;51357;-54
2023/01/22 10:20:25;;;;;;;;;44.00;33.00;;;;;;;;5101301;27;51154;-55
2023/01/22 10:23:17;;;;;;;;;40.50;31.75;;;;;;;;5092081;27;51572;-55
2023/01/22 10:26:20;;;;;;;;;41.00;32.00;;;;;;;;5101319;27;51002;-51
2023/01/22 10:29:07;;;;;;;;;45.00;35.00;;;;;;;;5093738;27;51335;-51
2023/01/22 10:31:56;;;;;;;;;42.75;35.25;;;;;;;;5102588;27;51473;-53
2023/01/22 10:34:40;;;;;;;;;37.25;32.50;;;;;;;;5082600;27;51086;-53
2023/01/22 10:37:24;;;;;;;;;37.75;31.50;;;;;;;;5088788;27;51240;-50
2023/01/22 10:40:32;;;;;;;;;39.50;32.00;;;;;;;;5081665;27;51046;-48
2023/01/22 10:43:16;;;;;;;;;32.50;28.75;;;;;;;;5080752;27;51171;-55
2023/01/22 10:46:04;;;;;;;;;44.50;32.75;;;;;;;;5082005;27;51128;-53
2023/01/22 10:49:02;;;;;;;;;37.50;32.25;;;;;;;;5100479;27;51168;-52
2023/01/22 10:51:51;;;;;;;;;38.25;33.00;;;;;;;;5101854;27;51102;-50
2023/01/22 10:54:40;;;;;;;;;40.50;31.25;;;;;;;;5100021;27;51177;-53
2023/01/22 10:57:35;;;;;;;;;41.50;34.25;;;;;;;;5100877;27;51055;-56
2023/01/22 11:00:22;;;;;;;;;40.50;31.00;;;;;;;;5102577;27;51120;-54
2023/01/22 11:03:14;;;;;;;;;33.50;30.75;;;;;;;;5102568;27;51077;-53
2023/01/22 11:06:02;;;;;;;;;31.75;27.25;;;;;;;;5102872;27;50935;-50
2023/01/22 11:09:06;;;;;;;;;38.00;31.50;;;;;;;;5101854;27;51380;-54
2023/01/22 11:11:59;;;;;;;;;37.50;31.50;;;;;;;;5079364;27;51050;-51
2023/01/22 11:14:44;;;;;;;;;38.50;32.50;;;;;;;;5080358;27;51663;-54
2023/01/22 11:17:47;;;;;;;;;46.25;38.50;;;;;;;;5081569;27;51134;-49
2023/01/22 11:20:44;;;;;;;;;43.50;35.00;;;;;;;;5081931;27;51037;-53
2023/01/22 11:23:34;;;;;;;;;44.25;35.75;;;;;;;;5081656;27;51022;-54
2023/01/22 11:26:37;;;;;;;;;40.50;32.50;;;;;;;;5094838;27;52123;-53
2023/01/22 11:29:40;;;;;;;;;41.00;31.75;;;;;;;;5099877;27;51018;-54
2023/01/22 11:32:42;;;;;;;;;41.50;31.75;;;;;;;;5089094;27;51101;-54
2023/01/22 11:35:31;;;;;;;;;40.75;34.00;;;;;;;;5081480;27;51576;-54
2023/01/22 11:38:26;;;;;;;;;39.75;32.75;;;;;;;;5081579;27;51043;-54
2023/01/22 11:41:11;;;;;;;;;33.50;29.50;;;;;;;;5081533;27;51456;-51
2023/01/22 11:44:14;;;;;;;;;36.50;27.50;;;;;;;;5099038;27;51108;-53
2023/01/22 11:46:58;;;;;;;;;41.00;30.00;;;;;;;;5101790;27;51084;-52
2023/01/22 11:49:48;;;;;;;;;40.50;31.75;;;;;;;;5101600;27;51112;-55
2023/01/22 11:52:39;;;;;;;;;40.75;32.25;;;;;;;;5101670;27;51546;-51
2023/01/22 11:55:23;;;;;;;;;34.75;28.00;;;;;;;;5101446;27;51101;-53
2023/01/22 11:58:08;;;;;;;;;30.00;27.50;;;;;;;;5101931;27;51171;-53
2023/01/22 12:01:04;;;;;;;;;47.00;37.75;;;;;;;;5101520;27;51453;-52
2023/01/22 12:04:05;;;;;;;;;38.00;30.25;;;;;;;;5094198;27;51237;-51
2023/01/22 12:07:01;;;;;;;;;37.75;30.25;;;;;;;;5084293;27;51235;-52
2023/01/22 12:09:54;;;;;;;;;33.25;28.50;;;;;;;;5079586;27;51116;-53
2023/01/22 12:12:51;;;;;;;;;40.00;31.00;;;;;;;;5080796;27;51134;-54
2023/01/22 12:15:35;;;;;;;;;35.00;31.00;;;;;;;;5080693;27;51167;-55
2023/01/22 12:18:37;;;;;;;;;37.75;32.25;;;;;;;;5098569;27;51028;-52
2023/01/22 12:21:21;;;;;;;;;40.00;32.25;;;;;;;;5101113;27;51118;-53
2023/01/22 12:24:09;;;;;;;;;39.75;32.50;;;;;;;;5095910;27;51140;-51
2023/01/22 12:27:00;;;;;;;;;35.75;29.25;;;;;;;;5080374;27;51342;-54
2023/01/22 12:29:49;;;;;;;;;37.25;30.00;;;;;;;;5081423;27;51189;-53
2023/01/22 12:32:36;;;;;;;;;34.75;31.25;;;;;;;;5096050;27;51540;-55
2023/01/22 12:35:21;;;;;;;;;42.50;32.25;;;;;;;;5095699;27;51127;-56
2023/01/22 12:38:30;;;;;;;;;39.25;31.00;;;;;;;;5080068;27;51568;-49
2023/01/22 12:41:20;;;;;;;;;41.50;31.00;;;;;;;;5101040;27;51107;-50
2023/01/22 12:44:20;;;;;;;;;38.00;31.00;;;;;;;;5100921;27;51612;-54
2023/01/22 12:47:28;;;;;;;;;33.50;28.25;;;;;;;;5084231;27;51146;-52
2023/01/22 12:50:17;;;;;;;;;35.25;30.75;;;;;;;;5093003;27;51720;-53
2023/01/22 12:53:05;;;;;;;;;39.25;30.25;;;;;;;;5100631;27;51330;-52
2023/01/22 12:56:00;;;;;;;;;37.50;31.00;;;;;;;;5100585;27;51068;-55
2023/01/22 12:58:54;;;;;;;;;32.50;28.50;;;;;;;;5095212;27;51022;-51
2023/01/22 13:01:38;;;;;;;;;36.25;30.25;;;;;;;;5080701;27;51068;-54
2023/01/22 13:04:27;;;;;;;;;35.00;31.00;;;;;;;;5079824;27;51462;-53
2023/01/22 13:07:22;;;;;;;;;42.50;33.00;;;;;;;;5091882;27;51368;-53
2023/01/22 13:10:19;;;;;;;;;59.00;44.25;;;;;;;;5083449;27;51638;-53
2023/01/22 13:13:15;;;;;;;;;41.75;33.25;;;;;;;;5077688;27;51175;-55
2023/01/22 13:16:15;;;;;;;;;37.25;33.50;;;;;;;;5083736;27;51139;-50
2023/01/22 13:18:59;;;;;;;;;53.25;42.25;;;;;;;;5096051;27;51226;-52
2023/01/22 13:21:45;;;;;;;;;51.75;40.00;;;;;;;;5088692;27;50996;-53
2023/01/22 13:24:29;;;;;;;;;49.25;37.50;;;;;;;;5085888;27;51658;-53
2023/01/22 13:27:20;;;;;;;;;49.50;37.00;;;;;;;;5079875;27;51019;-52
2023/01/22 13:30:15;;;;;;;;;37.00;31.00;;;;;;;;5083813;27;51085;-52
2023/01/22 13:33:13;;;;;;;;;54.75;38.75;;;;;;;;5079341;27;51203;-53
2023/01/22 13:36:07;;;;;;;;;36.75;33.00;;;;;;;;5090814;27;51549;-55
2023/01/22 13:38:56;;;;;;;;;45.50;34.25;;;;;;;;5078342;27;51101;-55
2023/01/22 13:41:40;;;;;;;;;41.25;32.75;;;;;;;;5078105;27;51515;-54
2023/01/22 13:44:27;;;;;;;;;43.00;32.25;;;;;;;;5080212;27;51408;-53
2023/01/22 13:47:26;;;;;;;;;36.00;31.00;;;;;;;;5085121;27;51433;-52
2023/01/22 13:50:18;;;;;;;;;46.25;32.75;;;;;;;;5078369;27;51069;-51
2023/01/22 13:53:03;;;;;;;;;43.50;33.50;;;;;;;;5085294;27;51167;-52
2023/01/22 13:55:47;;;;;;;;;40.25;32.25;;;;;;;;5089932;27;51121;-52
2023/01/22 13:58:33;;;;;;;;;40.75;30.50;;;;;;;;5096032;27;51078;-50
2023/01/22 14:01:32;;;;;;;;;37.75;31.00;;;;;;;;5096392;27;51490;-51
2023/01/22 14:04:26;;;;;;;;;43.50;31.75;;;;;;;;5093846;27;51138;-53
2023/01/22 14:07:16;;;;;;;;;40.75;31.75;;;;;;;;5078199;27;51511;-53
2023/01/22 14:10:16;;;;;;;;;37.75;31.50;;;;;;;;5076883;27;51483;-56
2023/01/22 14:13:01;;;;;;;;;39.25;31.25;;;;;;;;5087884;27;51140;-55
2023/01/22 14:15:54;;;;;;;;;41.75;34.00;;;;;;;;5099784;27;51780;-55
2023/01/22 14:18:38;;;;;;;;;40.00;31.50;;;;;;;;5099654;27;51112;-52
2023/01/22 14:21:23;;;;;;;;;33.50;29.50;;;;;;;;5096602;27;51070;-57
2023/01/22 14:24:08;;;;;;;;;43.25;30.75;;;;;;;;5088793;27;51061;-53
2023/01/22 14:26:52;;;;;;;;;33.00;29.50;;;;;;;;5079030;27;51472;-54
2023/01/22 14:29:36;;;;;;;;;37.75;29.50;;;;;;;;5081980;27;51432;-48
2023/01/22 14:32:22;;;;;;;;;34.50;28.75;;;;;;;;5100621;27;51109;-53
2023/01/22 14:35:07;;;;;;;;;39.25;30.75;;;;;;;;5092133;27;51175;-52
2023/01/22 14:37:52;;;;;;;;;39.75;31.25;;;;;;;;5082475;27;51100;-54
2023/01/22 14:40:36;;;;;;;;;37.25;29.75;;;;;;;;5082558;27;51100;-54
2023/01/22 14:43:20;;;;;;;;;39.00;30.50;;;;;;;;5082489;27;51321;-52
2023/01/22 14:46:08;;;;;;;;;34.00;29.25;;;;;;;;5081742;27;51455;-52
2023/01/22 14:48:52;;;;;;;;;30.00;24.75;;;;;;;;5082104;27;51054;-50
2023/01/22 14:51:36;;;;;;;;;31.75;29.50;;;;;;;;5082982;27;51586;-52
2023/01/22 14:54:21;;;;;;;;;39.25;33.25;;;;;;;;5089456;27;51236;-56
2023/01/22 14:57:05;;;;;;;;;41.50;31.00;;;;;;;;5086001;27;51128;-54
2023/01/22 14:59:50;;;;;;;;;35.75;27.50;;;;;;;;5084821;27;51556;-53
2023/01/22 15:02:38;;;;;;;;;42.75;31.25;;;;;;;;5095482;27;51338;-54
2023/01/22 15:05:23;;;;;;;;;33.75;29.00;;;;;;;;5087629;27;51203;-52
2023/01/22 15:08:08;;;;;;;;;39.50;32.00;;;;;;;;5092108;27;51093;-52
2023/01/22 15:10:52;;;;;;;;;34.25;29.75;;;;;;;;5094925;27;51082;-52
2023/01/22 15:13:36;;;;;;;;;34.25;30.50;;;;;;;;5081554;27;50964;-48
2023/01/22 15:16:20;;;;;;;;;32.25;28.75;;;;;;;;5082099;27;51619;-52
2023/01/22 15:19:05;;;;;;;;;36.50;30.25;;;;;;;;5085975;27;51063;-55
2023/01/22 15:21:49;;;;;;;;;34.00;28.75;;;;;;;;5092891;27;51012;-52
2023/01/22 15:24:34;;;;;;;;;36.25;31.50;;;;;;;;5101821;27;51085;-53
2023/01/22 15:27:19;;;;;;;;;37.00;29.75;;;;;;;;5093328;27;51499;-55
2023/01/22 15:30:05;;;;;;;;;32.50;27.75;;;;;;;;5083265;27;51133;-52
2023/01/22 15:32:49;;;;;;;;;37.00;31.75;;;;;;;;5080300;27;51690;-53
2023/01/22 15:35:33;;;;;;;;;37.00;29.75;;;;;;;;5088389;27;51192;-50
2023/01/22 15:38:18;;;;;;;;;40.25;30.25;;;;;;;;5081118;27;51173;-51
2023/01/22 15:41:07;;;;;;;;;33.50;30.00;;;;;;;;5095625;27;51119;-53
2023/01/22 15:43:52;;;;;;;;;29.00;27.50;;;;;;;;5086837;27;51120;-55
2023/01/22 15:46:37;;;;;;;;;39.50;30.75;;;;;;;;5088353;27;51124;-50
2023/01/22 15:49:22;;;;;;;;;36.25;30.00;;;;;;;;5084797;27;51626;-55
2023/01/22 15:52:06;;;;;;;;;31.75;29.75;;;;;;;;5082988;27;51161;-53
2023/01/22 15:54:52;;;;;;;;;41.75;31.50;;;;;;;;5087675;27;51173;-53
2023/01/22 15:57:36;;;;;;;;;31.00;23.25;;;;;;;;5082820;27;51126;-51
2023/01/22 16:00:21;;;;;;;;;40.00;29.75;;;;;;;;5085842;27;51077;-53
2023/01/22 16:03:05;;;;;;;;;37.25;31.00;;;;;;;;5083120;27;51119;-54
2023/01/22 16:05:50;;;;;;;;;41.75;32.00;;;;;;;;5087861;27;51229;-54
2023/01/22 16:08:34;;;;;;;;;32.25;29.75;;;;;;;;5090053;27;52530;-56
2023/01/22 16:11:19;;;;;;;;;33.75;30.75;;;;;;;;5086141;27;51127;-54
2023/01/22 16:14:04;;;;;;;;;30.25;30.00;;;;;;;;5083329;27;51184;-54
2023/01/22 16:16:48;;;;;;;;;34.50;30.50;;;;;;;;5082523;27;51149;-56